Tokuyo Maru No.15 — JD2184 — position and weather

sailwx.info

Track history (hours):
 
Tides and Currents Weather Stations Pressure Air Temp Water Temp Dewpoint Dewpoint Depression Visibility Wind Speed Wind Dir Waves Ship Positions

Tokuyo Maru No.15

Last reported at 2014-Sep-21 06:23 UTC. Time now 2014-Sep-23 02:15 UTC.
Position N 35°15' E 139°46'.

Length 66 m; draft 4.5 m.

Type: Tanker. MMSI: 431402034.

Date/timePositionNaut miles runAvg speedWind from/ knotsBaromVisibWave heightAir tempDewpointWater temp
2014-Sep-21 06:23N 35°15' E 139°46'1011.6
2014-Sep-21 05:33N 35°24' E 139°43'4 0.1
2014-Sep-19 16:33N 35°25' E 139°48'54 4.8
2014-Sep-19 05:10N 35°57' E 140°42'3 5.2
2014-Sep-19 04:34N 35°54' E 140°41'0 0.0
2014-Sep-19 03:33N 35°54' E 140°41'0 0.0
2014-Sep-19 02:31N 35°54' E 140°41'0 0.0
2014-Sep-19 01:33N 35°54' E 140°41'0 0.0
2014-Sep-19 00:33N 35°54' E 140°41'0 0.0
2014-Sep-18 23:33N 35°54' E 140°41'0 0.0
2014-Sep-18 22:33N 35°54' E 140°41'3 1.7
2014-Sep-18 20:33N 35°57' E 140°42'0 0.0
2014-Sep-18 19:33N 35°57' E 140°42'0 0.0
2014-Sep-18 18:30N 35°57' E 140°42'0 0.0
2014-Sep-18 17:17N 35°57' E 140°42'0 0.0
2014-Sep-18 16:31N 35°57' E 140°42'2 0.8
2014-Sep-18 14:17N 35°57' E 140°44'911.6
2014-Sep-18 13:32N 35°50' E 140°51'1010.2
2014-Sep-18 12:32N 35°40' E 140°54'2211.1
2014-Sep-18 10:33N 35°23' E 140°37'1211.5
2014-Sep-18 09:32N 35°14' E 140°29'1512.1
2014-Sep-18 08:20N 35°03' E 140°16'1112.6
2014-Sep-18 07:25N 34°57' E 140°04'21 7.2
2014-Sep-18 04:33N 35°12' E 139°46'1211.9
2014-Sep-18 03:33N 35°23' E 139°42'1212.2
2014-Sep-18 02:33N 35°31' E 139°54'7 6.8
2014-Sep-18 01:33N 35°31' E 140°03'0 0.0
2014-Sep-18 00:34N 35°31' E 140°03'0 0.0
2014-Sep-17 23:33N 35°31' E 140°03'0 0.0
2014-Sep-17 22:33N 35°31' E 140°03'6 5.8
2014-Sep-17 21:33N 35°29' E 139°56'1 0.7
2014-Sep-17 20:33N 35°29' E 139°55'0 0.0
2014-Sep-17 19:33N 35°29' E 139°55'0 0.0
2014-Sep-17 18:33N 35°29' E 139°55'0 0.0
2014-Sep-17 17:33N 35°29' E 139°55'0 0.0
2014-Sep-17 16:33N 35°29' E 139°55'0 0.0
2014-Sep-17 15:33N 35°29' E 139°55'7 7.2
2014-Sep-17 14:33N 35°25' E 139°47'1010.1
2014-Sep-17 13:33N 35°15' E 139°47'25 6.2
2014-Sep-17 09:33N 35°01' E 140°12'6010.0
2014-Sep-17 03:32N 35°56' E 140°42'3 2.7
2014-Sep-17 02:33N 35°54' E 140°41'0 0.0
2014-Sep-17 01:33N 35°54' E 140°41'0 0.0
2014-Sep-17 00:33N 35°54' E 140°41'0 0.0
2014-Sep-16 23:33N 35°54' E 140°41'3 3.4
2014-Sep-16 22:32N 35°57' E 140°42'9 9.2
2014-Sep-16 21:33N 35°50' E 140°50'1110.5
2014-Sep-16 20:30N 35°40' E 140°53'1311.0
2014-Sep-16 19:20N 35°29' E 140°43'911.0
2014-Sep-16 18:32N 35°22' E 140°37'1111.4
2014-Sep-16 17:33N 35°13' E 140°29'1512.5
2014-Sep-16 16:22N 35°03' E 140°16'1813.5
2014-Sep-16 15:04N 34°54' E 139°57'812.2
2014-Sep-16 14:25N 34°53' E 139°48'1310.8
2014-Sep-16 13:15N 35°06' E 139°45'912.3
2014-Sep-16 12:33N 35°14' E 139°46'1110.9
2014-Sep-16 11:33N 35°25' E 139°44'1211.5
2014-Sep-16 10:33N 35°31' E 139°56'5 5.4
2014-Sep-16 09:33N 35°31' E 140°03'0 0.0
2014-Sep-16 08:33N 35°31' E 140°03'0 0.0
2014-Sep-16 07:33N 35°31' E 140°03'0 0.0
2014-Sep-16 06:33N 35°31' E 140°03'1 1.4
2014-Sep-16 05:33N 35°31' E 140°01'1 1.4
2014-Sep-16 04:33N 35°30' E 140°02'0 0.0
2014-Sep-16 03:34N 35°30' E 140°02'0 0.0
2014-Sep-16 02:33N 35°30' E 140°02'0 0.0
2014-Sep-16 01:33N 35°30' E 140°02'0 0.0
2014-Sep-16 00:33N 35°30' E 140°02'0 0.0
2014-Sep-15 23:34N 35°30' E 140°02'0 0.0
2014-Sep-15 22:33N 35°30' E 140°02'1 1.1
2014-Sep-15 21:33N 35°30' E 140°01'0 0.4
2014-Sep-15 20:33N 35°31' E 140°01'0 0.0
2014-Sep-15 19:33N 35°31' E 140°01'0 0.0
2014-Sep-15 18:33N 35°31' E 140°01'0 0.0
2014-Sep-15 17:33N 35°31' E 140°01'0 0.0
2014-Sep-15 16:33N 35°31' E 140°01'0 0.1
2014-Sep-15 15:33N 35°31' E 140°01'0 0.0
2014-Sep-15 14:33N 35°31' E 140°01'0 0.0
2014-Sep-15 13:33N 35°31' E 140°01'0 0.0
2014-Sep-15 12:33N 35°31' E 140°01'0 0.0
2014-Sep-15 11:33N 35°31' E 140°01'1 1.4
2014-Sep-15 10:34N 35°31' E 140°03'0 0.0
2014-Sep-15 09:33N 35°31' E 140°03'0 0.0
2014-Sep-15 08:33N 35°31' E 140°03'0 0.0
2014-Sep-15 07:33N 35°31' E 140°03'0 0.0
2014-Sep-15 06:33N 35°31' E 140°03'0 0.0
2014-Sep-15 05:33N 35°31' E 140°03'0 0.0
2014-Sep-15 04:33N 35°31' E 140°03'1 1.4
2014-Sep-15 03:33N 35°31' E 140°01'5 5.3
2014-Sep-15 02:33N 35°29' E 139°55'0 0.0
2014-Sep-15 01:33N 35°29' E 139°55'5 4.8
2014-Sep-15 00:34N 35°27' E 139°50'1110.6
2014-Sep-14 23:34N 35°17' E 139°46'1111.2
2014-Sep-14 22:33N 35°06' E 139°42'  
2014-Sep-12 16:16N 34°58' E 140°06'911.7
2014-Sep-12 15:28N 35°03' E 140°16'1510.9
2014-Sep-12 14:06N 35°14' E 140°28'611.8
2014-Sep-12 13:33N 35°19' E 140°33'1212.1
2014-Sep-12 12:33N 35°29' E 140°42'1711.9
2014-Sep-12 11:06N 35°43' E 140°54'711.5
2014-Sep-12 10:31N 35°49' E 140°51'1111.6
2014-Sep-12 09:34N 35°58' E 140°43'4 4.4
2014-Sep-12 08:34N 35°54' E 140°41'0 0.0
2014-Sep-12 07:33N 35°54' E 140°41'0 0.0
2014-Sep-12 06:33N 35°54' E 140°41'0 0.0
2014-Sep-12 05:33N 35°54' E 140°41'5 3.6
2014-Sep-12 04:07N 35°58' E 140°44'0 0.0
2014-Sep-11 23:19N 35°58' E 140°44'0 0.0
2014-Sep-11 22:28N 35°58' E 140°44'0 0.0
2014-Sep-11 20:33N 35°58' E 140°44'6 6.1
2014-Sep-11 19:33N 35°53' E 140°48'1210.6
2014-Sep-11 18:24N 35°42' E 140°54'1110.7
2014-Sep-11 17:24N 35°33' E 140°47'1011.7
2014-Sep-11 16:32N 35°25' E 140°39'1111.6
2014-Sep-11 15:33N 35°16' E 140°31'1312.5
2014-Sep-11 14:29N 35°06' E 140°20'1413.7
2014-Sep-11 13:27N 34°58' E 140°06'21 7.2
2014-Sep-11 10:28N 35°11' E 139°46'1111.5
2014-Sep-11 09:33N 35°22' E 139°43'1110.9
2014-Sep-11 08:33N 35°30' E 139°52'9 9.0
2014-Sep-11 07:34N 35°31' E 140°03'0 0.0
2014-Sep-11 06:33N 35°31' E 140°03'  
Track history (hours):
 
Tides and Currents Weather Stations Pressure Air Temp Water Temp Dewpoint Dewpoint Depression Visibility Wind Speed Wind Dir Waves Ship Positions

Tokuyo Maru No.15

Last reported at 2014-Sep-21 06:23 UTC. Time now 2014-Sep-23 02:15 UTC.
Position N 35°15' E 139°46'.

Length 66 m; draft 4.5 m.

Type: Tanker. MMSI: 431402034.

Date/timePositionNaut miles runAvg speedWind from/ knotsBaromVisibWave heightAir tempDewpointWater temp
2014-Sep-21 06:23N 35°15' E 139°46'1011.6
2014-Sep-21 05:33N 35°24' E 139°43'4 0.1
2014-Sep-19 16:33N 35°25' E 139°48'54 4.8
2014-Sep-19 05:10N 35°57' E 140°42'3 5.2
2014-Sep-19 04:34N 35°54' E 140°41'0 0.0
2014-Sep-19 03:33N 35°54' E 140°41'0 0.0
2014-Sep-19 02:31N 35°54' E 140°41'0 0.0
2014-Sep-19 01:33N 35°54' E 140°41'0 0.0
2014-Sep-19 00:33N 35°54' E 140°41'0 0.0
2014-Sep-18 23:33N 35°54' E 140°41'0 0.0
2014-Sep-18 22:33N 35°54' E 140°41'3 1.7
2014-Sep-18 20:33N 35°57' E 140°42'0 0.0
2014-Sep-18 19:33N 35°57' E 140°42'0 0.0
2014-Sep-18 18:30N 35°57' E 140°42'0 0.0
2014-Sep-18 17:17N 35°57' E 140°42'0 0.0
2014-Sep-18 16:31N 35°57' E 140°42'2 0.8
2014-Sep-18 14:17N 35°57' E 140°44'911.6
2014-Sep-18 13:32N 35°50' E 140°51'1010.2
2014-Sep-18 12:32N 35°40' E 140°54'2211.1
2014-Sep-18 10:33N 35°23' E 140°37'1211.5
2014-Sep-18 09:32N 35°14' E 140°29'1512.1
2014-Sep-18 08:20N 35°03' E 140°16'1112.6
2014-Sep-18 07:25N 34°57' E 140°04'21 7.2
2014-Sep-18 04:33N 35°12' E 139°46'1211.9
2014-Sep-18 03:33N 35°23' E 139°42'1212.2
2014-Sep-18 02:33N 35°31' E 139°54'7 6.8
2014-Sep-18 01:33N 35°31' E 140°03'0 0.0
2014-Sep-18 00:34N 35°31' E 140°03'0 0.0
2014-Sep-17 23:33N 35°31' E 140°03'0 0.0
2014-Sep-17 22:33N 35°31' E 140°03'6 5.8
2014-Sep-17 21:33N 35°29' E 139°56'1 0.7
2014-Sep-17 20:33N 35°29' E 139°55'0 0.0
2014-Sep-17 19:33N 35°29' E 139°55'0 0.0
2014-Sep-17 18:33N 35°29' E 139°55'0 0.0
2014-Sep-17 17:33N 35°29' E 139°55'0 0.0
2014-Sep-17 16:33N 35°29' E 139°55'0 0.0
2014-Sep-17 15:33N 35°29' E 139°55'7 7.2
2014-Sep-17 14:33N 35°25' E 139°47'1010.1
2014-Sep-17 13:33N 35°15' E 139°47'25 6.2
2014-Sep-17 09:33N 35°01' E 140°12'6010.0
2014-Sep-17 03:32N 35°56' E 140°42'3 2.7
2014-Sep-17 02:33N 35°54' E 140°41'0 0.0
2014-Sep-17 01:33N 35°54' E 140°41'0 0.0
2014-Sep-17 00:33N 35°54' E 140°41'0 0.0
2014-Sep-16 23:33N 35°54' E 140°41'3 3.4
2014-Sep-16 22:32N 35°57' E 140°42'9 9.2
2014-Sep-16 21:33N 35°50' E 140°50'1110.5
2014-Sep-16 20:30N 35°40' E 140°53'1311.0
2014-Sep-16 19:20N 35°29' E 140°43'911.0
2014-Sep-16 18:32N 35°22' E 140°37'1111.4
2014-Sep-16 17:33N 35°13' E 140°29'1512.5
2014-Sep-16 16:22N 35°03' E 140°16'1813.5
2014-Sep-16 15:04N 34°54' E 139°57'812.2
2014-Sep-16 14:25N 34°53' E 139°48'1310.8
2014-Sep-16 13:15N 35°06' E 139°45'912.3
2014-Sep-16 12:33N 35°14' E 139°46'1110.9
2014-Sep-16 11:33N 35°25' E 139°44'1211.5
2014-Sep-16 10:33N 35°31' E 139°56'5 5.4
2014-Sep-16 09:33N 35°31' E 140°03'0 0.0
2014-Sep-16 08:33N 35°31' E 140°03'0 0.0
2014-Sep-16 07:33N 35°31' E 140°03'0 0.0
2014-Sep-16 06:33N 35°31' E 140°03'1 1.4
2014-Sep-16 05:33N 35°31' E 140°01'1 1.4
2014-Sep-16 04:33N 35°30' E 140°02'0 0.0
2014-Sep-16 03:34N 35°30' E 140°02'0 0.0
2014-Sep-16 02:33N 35°30' E 140°02'0 0.0
2014-Sep-16 01:33N 35°30' E 140°02'0 0.0
2014-Sep-16 00:33N 35°30' E 140°02'0 0.0
2014-Sep-15 23:34N 35°30' E 140°02'0 0.0
2014-Sep-15 22:33N 35°30' E 140°02'1 1.1
2014-Sep-15 21:33N 35°30' E 140°01'0 0.4
2014-Sep-15 20:33N 35°31' E 140°01'0 0.0
2014-Sep-15 19:33N 35°31' E 140°01'0 0.0
2014-Sep-15 18:33N 35°31' E 140°01'0 0.0
2014-Sep-15 17:33N 35°31' E 140°01'0 0.0
2014-Sep-15 16:33N 35°31' E 140°01'0 0.1
2014-Sep-15 15:33N 35°31' E 140°01'0 0.0
2014-Sep-15 14:33N 35°31' E 140°01'0 0.0
2014-Sep-15 13:33N 35°31' E 140°01'0 0.0
2014-Sep-15 12:33N 35°31' E 140°01'0 0.0
2014-Sep-15 11:33N 35°31' E 140°01'1 1.4
2014-Sep-15 10:34N 35°31' E 140°03'0 0.0
2014-Sep-15 09:33N 35°31' E 140°03'0 0.0
2014-Sep-15 08:33N 35°31' E 140°03'0 0.0
2014-Sep-15 07:33N 35°31' E 140°03'0 0.0
2014-Sep-15 06:33N 35°31' E 140°03'0 0.0
2014-Sep-15 05:33N 35°31' E 140°03'0 0.0
2014-Sep-15 04:33N 35°31' E 140°03'1 1.4
2014-Sep-15 03:33N 35°31' E 140°01'5 5.3
2014-Sep-15 02:33N 35°29' E 139°55'0 0.0
2014-Sep-15 01:33N 35°29' E 139°55'5 4.8
2014-Sep-15 00:34N 35°27' E 139°50'1110.6
2014-Sep-14 23:34N 35°17' E 139°46'1111.2
2014-Sep-14 22:33N 35°06' E 139°42'  
2014-Sep-12 16:16N 34°58' E 140°06'911.7
2014-Sep-12 15:28N 35°03' E 140°16'1510.9
2014-Sep-12 14:06N 35°14' E 140°28'611.8
2014-Sep-12 13:33N 35°19' E 140°33'1212.1
2014-Sep-12 12:33N 35°29' E 140°42'1711.9
2014-Sep-12 11:06N 35°43' E 140°54'711.5
2014-Sep-12 10:31N 35°49' E 140°51'1111.6
2014-Sep-12 09:34N 35°58' E 140°43'4 4.4
2014-Sep-12 08:34N 35°54' E 140°41'0 0.0
2014-Sep-12 07:33N 35°54' E 140°41'0 0.0
2014-Sep-12 06:33N 35°54' E 140°41'0 0.0
2014-Sep-12 05:33N 35°54' E 140°41'5 3.6
2014-Sep-12 04:07N 35°58' E 140°44'0 0.0
2014-Sep-11 23:19N 35°58' E 140°44'0 0.0
2014-Sep-11 22:28N 35°58' E 140°44'0 0.0
2014-Sep-11 20:33N 35°58' E 140°44'6 6.1
2014-Sep-11 19:33N 35°53' E 140°48'1210.6
2014-Sep-11 18:24N 35°42' E 140°54'1110.7
2014-Sep-11 17:24N 35°33' E 140°47'1011.7
2014-Sep-11 16:32N 35°25' E 140°39'1111.6
2014-Sep-11 15:33N 35°16' E 140°31'1312.5
2014-Sep-11 14:29N 35°06' E 140°20'1413.7
2014-Sep-11 13:27N 34°58' E 140°06'21 7.2
2014-Sep-11 10:28N 35°11' E 139°46'1111.5
2014-Sep-11 09:33N 35°22' E 139°43'1110.9
2014-Sep-11 08:33N 35°30' E 139°52'9 9.0
2014-Sep-11 07:34N 35°31' E 140°03'0 0.0
2014-Sep-11 06:33N 35°31' E 140°03'  

Dump ship's entire track history